Sunday, March 24, 2019, 7:35 PM EDT
Back to Local

KWRI, Mcguire Air Force Base

Location: Trenton, NJ, United States Lat: 40.017
Local Time: 7:35 PM EDT (23:35 GMT) Lon: -74.6
Time Zone: US/Eastern Elev: 134 ft

Show me the last for .
Show Decoded

2019-03-24 17:56 METAR KWRI 242156Z 24013KT 10SM SCT130 OVC160 15/M07 A3003 RMK AO2A PK WND
                 23026/00 SLP169 T01501072 RVRNO $ =
2019-03-24 16:56 METAR KWRI 242056Z 21014G21KT 10SM OVC140 16/M06 A3003 RMK AO2A SLP169 T01561061
                 57037 RVRNO $ =
2019-03-24 15:56 METAR KWRI 241956Z AUTO 24011KT 10SM FEW140 16/M08 A3005 RMK AO2 SLP176
                 T01591077 RVRNO $ =
2019-03-24 14:56 METAR KWRI 241856Z AUTO 23013G16KT 10SM FEW140 16/M06 A3009 RMK AO2 SLP190
                 T01611062 $ =
2019-03-24 14:01 METAR KWRI 241801Z AUTO 27012G18KT 10SM CLR 15/M06 A3013 RMK AO2 WSHFT 1754
                 SLP203 $ =
2019-03-24 13:56 METAR KWRI 241756Z AUTO 23013G18KT 10SM CLR 14/M06 A3014 RMK AO2 SLP207
                 T01441065 10144 20030 57027 $ =
2019-03-24 13:37 METAR KWRI 241737Z AUTO 26011G21KT 10SM CLR 14/M06 A3014 RMK AO2 WSHFT 27 SLP207
                 =
2019-03-24 13:05 METAR KWRI 241705Z AUTO 25011KT 10SM CLR 14/M06 A3016 RMK AO2 WSHFT 02 SLP213 =
2019-03-24 12:56 METAR KWRI 241656Z AUTO 24007KT 10SM CLR 13/M07 A3016 RMK AO2 SLP213 T01331069 =
2019-03-24 11:56 METAR KWRI 241556Z AUTO 26009KT 10SM CLR 12/M07 A3019 RMK AO2 SLP224 T01201074 =
2019-03-24 10:56 METAR KWRI 241456Z AUTO 28012G16KT 10SM CLR 11/M09 A3021 RMK AO2 SLP230
                 T01061086 58006 =
2019-03-24 09:56 METAR KWRI 241356Z AUTO 26008KT 10SM CLR 08/M08 A3022 RMK AO2 SLP234 T00801081 =
2019-03-24 08:56 METAR KWRI 241256Z AUTO 23007KT 10SM CLR 05/M07 A3024 RMK AO2 SLP241 T00511074 =
2019-03-24 07:56 METAR KWRI 241156Z AUTO 24006KT 10SM CLR 03/M08 A3023 RMK AO2 SLP237 T00291085
                 10031 21017 52019 =
2019-03-24 03:56 METAR KWRI 240756Z AUTO 25005KT 10SM CLR 02/M10 A3017 RMK AO2 SLP217 T00241105 =
2019-03-24 00:56 METAR KWRI 240456Z AUTO 26006KT 10SM CLR 03/M10 A3015 RMK AO2 SLP210 T00321105
                 401050014 =
2019-03-23 23:56 METAR KWRI 240356Z AUTO 25006KT 10SM CLR 03/M10 A3015 RMK AO2 SLP210 T00271096 =
2019-03-23 22:56 METAR KWRI 240256Z AUTO 30006KT 10SM CLR 05/M12 A3013 RMK AO2 SLP204 T00541117
                 52023 =
2019-03-23 21:56 METAR KWRI 240156Z AUTO 29007KT 10SM CLR 06/M11 A3012 RMK AO2 SLP200 T00631113 =
2019-03-23 20:56 METAR KWRI 240056Z AUTO 29007KT 10SM CLR 07/M11 A3010 RMK AO2 SLP193 T00711107 =
2019-03-23 19:56 METAR KWRI 232356Z AUTO 29013KT 10SM CLR 08/M11 A3006 RMK AO2 SLP180 T00801114
                 10105 20080 52030 =

Support USWX by starting your Amazon purchase here.